sensor_id;sensor_type;location;lat;lon;timestamp;temperature;humidity
7341;DHT22;6870;50.944;6.932;2024-03-25T00:00:46;19.80;29.20
7341;DHT22;6870;50.944;6.932;2024-03-25T00:03:14;19.50;29.10
7341;DHT22;6870;50.944;6.932;2024-03-25T00:05:40;19.60;29.40
7341;DHT22;6870;50.944;6.932;2024-03-25T00:08:07;19.40;28.90
7341;DHT22;6870;50.944;6.932;2024-03-25T00:10:33;19.80;29.50
7341;DHT22;6870;50.944;6.932;2024-03-25T00:13:04;19.70;29.20
7341;DHT22;6870;50.944;6.932;2024-03-25T00:15:30;19.60;29.50
7341;DHT22;6870;50.944;6.932;2024-03-25T00:17:57;19.40;29.20
7341;DHT22;6870;50.944;6.932;2024-03-25T00:20:23;19.50;29.10
7341;DHT22;6870;50.944;6.932;2024-03-25T00:22:50;19.50;29.50
7341;DHT22;6870;50.944;6.932;2024-03-25T00:25:16;19.80;29.40
7341;DHT22;6870;50.944;6.932;2024-03-25T00:27:43;19.80;29.30
7341;DHT22;6870;50.944;6.932;2024-03-25T00:30:12;19.60;29.30
7341;DHT22;6870;50.944;6.932;2024-03-25T00:32:39;19.70;29.60
7341;DHT22;6870;50.944;6.932;2024-03-25T00:35:06;19.50;29.20
7341;DHT22;6870;50.944;6.932;2024-03-25T00:37:34;19.70;29.60
7341;DHT22;6870;50.944;6.932;2024-03-25T00:40:00;19.40;29.40
7341;DHT22;6870;50.944;6.932;2024-03-25T00:42:27;19.70;29.40
7341;DHT22;6870;50.944;6.932;2024-03-25T00:44:53;19.60;29.60
7341;DHT22;6870;50.944;6.932;2024-03-25T00:47:22;19.80;29.70
7341;DHT22;6870;50.944;6.932;2024-03-25T00:49:48;19.50;29.40
7341;DHT22;6870;50.944;6.932;2024-03-25T00:52:15;19.80;29.90
7341;DHT22;6870;50.944;6.932;2024-03-25T00:54:42;19.80;29.90
7341;DHT22;6870;50.944;6.932;2024-03-25T00:57:09;19.60;29.50
7341;DHT22;6870;50.944;6.932;2024-03-25T00:59:37;19.80;29.70
7341;DHT22;6870;50.944;6.932;2024-03-25T01:02:05;19.70;29.80
7341;DHT22;6870;50.944;6.932;2024-03-25T01:04:32;19.50;29.70
7341;DHT22;6870;50.944;6.932;2024-03-25T01:07:00;19.70;29.90
7341;DHT22;6870;50.944;6.932;2024-03-25T01:09:26;19.60;29.80
7341;DHT22;6870;50.944;6.932;2024-03-25T01:11:53;19.70;29.70
7341;DHT22;6870;50.944;6.932;2024-03-25T01:14:19;19.70;30.60
7341;DHT22;6870;50.944;6.932;2024-03-25T01:16:46;19.60;29.70
7341;DHT22;6870;50.944;6.932;2024-03-25T01:19:13;19.60;29.60
7341;DHT22;6870;50.944;6.932;2024-03-25T01:21:42;19.50;29.80
7341;DHT22;6870;50.944;6.932;2024-03-25T01:24:08;19.50;29.70
7341;DHT22;6870;50.944;6.932;2024-03-25T01:26:35;19.60;29.80
7341;DHT22;6870;50.944;6.932;2024-03-25T01:29:02;19.50;29.70
7341;DHT22;6870;50.944;6.932;2024-03-25T01:31:29;19.70;29.90
7341;DHT22;6870;50.944;6.932;2024-03-25T01:33:55;19.50;29.70
7341;DHT22;6870;50.944;6.932;2024-03-25T01:36:22;19.90;30.00
7341;DHT22;6870;50.944;6.932;2024-03-25T01:38:50;19.60;30.00
7341;DHT22;6870;50.944;6.932;2024-03-25T01:41:21;19.50;29.80
7341;DHT22;6870;50.944;6.932;2024-03-25T01:43:48;19.50;29.90
7341;DHT22;6870;50.944;6.932;2024-03-25T01:46:16;19.70;29.70
7341;DHT22;6870;50.944;6.932;2024-03-25T01:48:44;19.70;30.00
7341;DHT22;6870;50.944;6.932;2024-03-25T01:51:13;19.60;29.70
7341;DHT22;6870;50.944;6.932;2024-03-25T01:53:41;19.80;29.90
7341;DHT22;6870;50.944;6.932;2024-03-25T01:56:10;19.70;29.90
7341;DHT22;6870;50.944;6.932;2024-03-25T01:58:37;19.50;29.50
7341;DHT22;6870;50.944;6.932;2024-03-25T02:01:05;19.70;29.70
7341;DHT22;6870;50.944;6.932;2024-03-25T02:03:31;19.90;30.00
7341;DHT22;6870;50.944;6.932;2024-03-25T02:06:01;19.60;29.90
7341;DHT22;6870;50.944;6.932;2024-03-25T02:08:28;19.80;30.10
7341;DHT22;6870;50.944;6.932;2024-03-25T02:10:56;19.60;30.00
7341;DHT22;6870;50.944;6.932;2024-03-25T02:13:25;19.70;29.80
7341;DHT22;6870;50.944;6.932;2024-03-25T02:15:52;19.60;30.00
7341;DHT22;6870;50.944;6.932;2024-03-25T02:18:20;19.50;29.80
7341;DHT22;6870;50.944;6.932;2024-03-25T02:20:48;19.70;30.80
7341;DHT22;6870;50.944;6.932;2024-03-25T02:23:14;19.60;29.90
7341;DHT22;6870;50.944;6.932;2024-03-25T02:25:42;19.50;30.00
7341;DHT22;6870;50.944;6.932;2024-03-25T02:28:10;19.60;30.20
7341;DHT22;6870;50.944;6.932;2024-03-25T02:30:37;19.40;29.90
7341;DHT22;6870;50.944;6.932;2024-03-25T02:33:04;19.40;30.10
7341;DHT22;6870;50.944;6.932;2024-03-25T02:35:31;19.60;30.10
7341;DHT22;6870;50.944;6.932;2024-03-25T02:37:58;19.40;30.00
7341;DHT22;6870;50.944;6.932;2024-03-25T02:40:25;19.60;29.90
7341;DHT22;6870;50.944;6.932;2024-03-25T02:42:52;19.60;30.20
7341;DHT22;6870;50.944;6.932;2024-03-25T02:45:20;19.80;30.40
7341;DHT22;6870;50.944;6.932;2024-03-25T02:47:47;19.40;30.00
7341;DHT22;6870;50.944;6.932;2024-03-25T02:50:14;19.50;30.00
7341;DHT22;6870;50.944;6.932;2024-03-25T02:52:40;19.50;29.90
7341;DHT22;6870;50.944;6.932;2024-03-25T02:55:08;19.70;30.20
7341;DHT22;6870;50.944;6.932;2024-03-25T02:57:34;19.50;30.50
7341;DHT22;6870;50.944;6.932;2024-03-25T03:00:01;19.50;30.20
7341;DHT22;6870;50.944;6.932;2024-03-25T03:02:29;19.30;30.00
7341;DHT22;6870;50.944;6.932;2024-03-25T03:04:56;19.50;30.60
7341;DHT22;6870;50.944;6.932;2024-03-25T03:07:23;19.70;30.60
7341;DHT22;6870;50.944;6.932;2024-03-25T03:09:50;19.50;30.80
7341;DHT22;6870;50.944;6.932;2024-03-25T03:12:16;19.60;31.00
7341;DHT22;6870;50.944;6.932;2024-03-25T03:14:43;19.40;30.90
7341;DHT22;6870;50.944;6.932;2024-03-25T03:17:09;19.50;31.20
7341;DHT22;6870;50.944;6.932;2024-03-25T03:19:37;19.50;31.40
7341;DHT22;6870;50.944;6.932;2024-03-25T03:22:04;19.20;31.10
7341;DHT22;6870;50.944;6.932;2024-03-25T03:24:31;19.00;31.00
7341;DHT22;6870;50.944;6.932;2024-03-25T03:26:57;19.20;31.30
7341;DHT22;6870;50.944;6.932;2024-03-25T03:29:24;19.40;31.40
7341;DHT22;6870;50.944;6.932;2024-03-25T03:31:50;19.10;31.40
7341;DHT22;6870;50.944;6.932;2024-03-25T03:34:17;19.40;31.80
7341;DHT22;6870;50.944;6.932;2024-03-25T03:36:45;19.40;31.90
7341;DHT22;6870;50.944;6.932;2024-03-25T03:39:12;19.40;32.10
7341;DHT22;6870;50.944;6.932;2024-03-25T03:41:39;19.10;32.00
7341;DHT22;6870;50.944;6.932;2024-03-25T03:44:06;18.90;31.40
7341;DHT22;6870;50.944;6.932;2024-03-25T03:46:32;18.90;31.60
7341;DHT22;6870;50.944;6.932;2024-03-25T03:48:59;19.20;31.60
7341;DHT22;6870;50.944;6.932;2024-03-25T03:51:25;19.20;31.40
7341;DHT22;6870;50.944;6.932;2024-03-25T03:53:54;19.20;32.60
7341;DHT22;6870;50.944;6.932;2024-03-25T03:56:21;19.10;32.60
7341;DHT22;6870;50.944;6.932;2024-03-25T03:58:48;19.20;32.00
7341;DHT22;6870;50.944;6.932;2024-03-25T04:01:15;19.00;31.90
7341;DHT22;6870;50.944;6.932;2024-03-25T04:03:43;19.00;32.70
7341;DHT22;6870;50.944;6.932;2024-03-25T04:06:10;19.10;32.40
7341;DHT22;6870;50.944;6.932;2024-03-25T04:08:38;19.20;33.00
7341;DHT22;6870;50.944;6.932;2024-03-25T04:11:06;19.10;33.00
7341;DHT22;6870;50.944;6.932;2024-03-25T04:13:34;19.10;33.10
7341;DHT22;6870;50.944;6.932;2024-03-25T04:16:01;19.00;33.00
7341;DHT22;6870;50.944;6.932;2024-03-25T04:18:30;19.10;33.10
7341;DHT22;6870;50.944;6.932;2024-03-25T04:20:57;19.10;33.20
7341;DHT22;6870;50.944;6.932;2024-03-25T04:23:24;19.10;32.70
7341;DHT22;6870;50.944;6.932;2024-03-25T04:25:51;19.10;33.20
7341;DHT22;6870;50.944;6.932;2024-03-25T04:28:20;18.90;32.10
7341;DHT22;6870;50.944;6.932;2024-03-25T04:30:52;18.90;33.30
7341;DHT22;6870;50.944;6.932;2024-03-25T04:33:21;19.10;33.60
7341;DHT22;6870;50.944;6.932;2024-03-25T04:35:47;18.90;32.40
7341;DHT22;6870;50.944;6.932;2024-03-25T04:38:16;19.20;33.10
7341;DHT22;6870;50.944;6.932;2024-03-25T04:40:42;19.10;32.80
7341;DHT22;6870;50.944;6.932;2024-03-25T04:43:09;19.00;33.70
7341;DHT22;6870;50.944;6.932;2024-03-25T04:45:37;18.90;33.20
7341;DHT22;6870;50.944;6.932;2024-03-25T04:48:04;18.90;33.50
7341;DHT22;6870;50.944;6.932;2024-03-25T04:50:31;19.10;34.00
7341;DHT22;6870;50.944;6.932;2024-03-25T04:52:57;19.10;34.10
7341;DHT22;6870;50.944;6.932;2024-03-25T04:55:23;19.10;34.20
7341;DHT22;6870;50.944;6.932;2024-03-25T04:57:49;18.80;33.40
7341;DHT22;6870;50.944;6.932;2024-03-25T05:00:16;19.10;34.40
7341;DHT22;6870;50.944;6.932;2024-03-25T05:02:44;19.00;34.30
7341;DHT22;6870;50.944;6.932;2024-03-25T05:05:10;19.10;34.50
7341;DHT22;6870;50.944;6.932;2024-03-25T05:07:37;19.20;34.70
7341;DHT22;6870;50.944;6.932;2024-03-25T05:10:03;18.90;34.00
7341;DHT22;6870;50.944;6.932;2024-03-25T05:12:30;18.90;34.50
7341;DHT22;6870;50.944;6.932;2024-03-25T05:14:57;19.10;33.90
7341;DHT22;6870;50.944;6.932;2024-03-25T05:17:23;19.10;34.70
7341;DHT22;6870;50.944;6.932;2024-03-25T05:19:51;18.80;34.60
7341;DHT22;6870;50.944;6.932;2024-03-25T05:22:17;19.10;34.80
7341;DHT22;6870;50.944;6.932;2024-03-25T05:24:43;19.10;34.20
7341;DHT22;6870;50.944;6.932;2024-03-25T05:27:09;18.80;33.70
7341;DHT22;6870;50.944;6.932;2024-03-25T05:29:35;18.70;34.60
7341;DHT22;6870;50.944;6.932;2024-03-25T05:32:02;18.90;34.70
7341;DHT22;6870;50.944;6.932;2024-03-25T05:34:29;19.10;35.00
7341;DHT22;6870;50.944;6.932;2024-03-25T05:36:57;18.80;34.70
7341;DHT22;6870;50.944;6.932;2024-03-25T05:39:23;19.10;35.10
7341;DHT22;6870;50.944;6.932;2024-03-25T05:41:50;19.10;35.10
7341;DHT22;6870;50.944;6.932;2024-03-25T05:44:16;18.90;35.00
7341;DHT22;6870;50.944;6.932;2024-03-25T05:46:42;18.60;34.70
7341;DHT22;6870;50.944;6.932;2024-03-25T05:49:08;19.00;34.90
7341;DHT22;6870;50.944;6.932;2024-03-25T05:51:34;19.10;34.60
7341;DHT22;6870;50.944;6.932;2024-03-25T05:54:02;19.00;35.20
7341;DHT22;6870;50.944;6.932;2024-03-25T05:56:28;18.90;35.10
7341;DHT22;6870;50.944;6.932;2024-03-25T05:58:56;18.80;35.10
7341;DHT22;6870;50.944;6.932;2024-03-25T06:01:23;19.10;34.70
7341;DHT22;6870;50.944;6.932;2024-03-25T06:03:49;19.10;35.50
7341;DHT22;6870;50.944;6.932;2024-03-25T06:06:15;19.00;34.90
7341;DHT22;6870;50.944;6.932;2024-03-25T06:08:41;19.00;35.20
7341;DHT22;6870;50.944;6.932;2024-03-25T06:11:09;18.80;34.90
7341;DHT22;6870;50.944;6.932;2024-03-25T06:13:35;19.10;35.60
7341;DHT22;6870;50.944;6.932;2024-03-25T06:16:02;19.00;34.70
7341;DHT22;6870;50.944;6.932;2024-03-25T06:18:29;18.70;35.30
7341;DHT22;6870;50.944;6.932;2024-03-25T06:20:55;19.10;35.10
7341;DHT22;6870;50.944;6.932;2024-03-25T06:23:22;18.60;34.70
7341;DHT22;6870;50.944;6.932;2024-03-25T06:25:50;19.00;35.60
7341;DHT22;6870;50.944;6.932;2024-03-25T06:28:18;18.80;35.40
7341;DHT22;6870;50.944;6.932;2024-03-25T06:30:45;19.10;35.70
7341;DHT22;6870;50.944;6.932;2024-03-25T06:33:30;19.00;36.40
7341;DHT22;6870;50.944;6.932;2024-03-25T06:36:15;19.00;35.70
7341;DHT22;6870;50.944;6.932;2024-03-25T06:38:41;18.50;35.20
7341;DHT22;6870;50.944;6.932;2024-03-25T06:41:07;19.10;35.70
7341;DHT22;6870;50.944;6.932;2024-03-25T06:43:35;18.70;35.60
7341;DHT22;6870;50.944;6.932;2024-03-25T06:46:01;19.10;35.70
7341;DHT22;6870;50.944;6.932;2024-03-25T06:48:28;19.10;35.70
7341;DHT22;6870;50.944;6.932;2024-03-25T06:50:55;19.10;35.80
7341;DHT22;6870;50.944;6.932;2024-03-25T06:53:21;19.20;35.90
7341;DHT22;6870;50.944;6.932;2024-03-25T06:55:52;19.10;36.00
7341;DHT22;6870;50.944;6.932;2024-03-25T06:58:20;19.10;36.10
7341;DHT22;6870;50.944;6.932;2024-03-25T07:00:48;19.20;36.00
7341;DHT22;6870;50.944;6.932;2024-03-25T07:03:15;19.00;35.90
7341;DHT22;6870;50.944;6.932;2024-03-25T07:05:44;19.10;36.20
7341;DHT22;6870;50.944;6.932;2024-03-25T07:08:10;19.10;36.20
7341;DHT22;6870;50.944;6.932;2024-03-25T07:10:37;19.00;35.80
7341;DHT22;6870;50.944;6.932;2024-03-25T07:13:03;19.00;35.90
7341;DHT22;6870;50.944;6.932;2024-03-25T07:15:30;19.10;35.40
7341;DHT22;6870;50.944;6.932;2024-03-25T07:17:58;18.90;35.90
7341;DHT22;6870;50.944;6.932;2024-03-25T07:20:24;19.00;35.60
7341;DHT22;6870;50.944;6.932;2024-03-25T07:22:50;18.90;35.70
7341;DHT22;6870;50.944;6.932;2024-03-25T07:25:16;19.20;36.00
7341;DHT22;6870;50.944;6.932;2024-03-25T07:27:42;19.10;35.90
7341;DHT22;6870;50.944;6.932;2024-03-25T07:30:09;19.10;35.90
7341;DHT22;6870;50.944;6.932;2024-03-25T07:32:35;19.20;36.00
7341;DHT22;6870;50.944;6.932;2024-03-25T07:35:04;19.20;36.10
7341;DHT22;6870;50.944;6.932;2024-03-25T07:37:31;19.20;35.90
7341;DHT22;6870;50.944;6.932;2024-03-25T07:39:57;19.20;35.70
7341;DHT22;6870;50.944;6.932;2024-03-25T07:42:23;19.10;35.60
7341;DHT22;6870;50.944;6.932;2024-03-25T07:44:49;19.10;35.50
7341;DHT22;6870;50.944;6.932;2024-03-25T07:47:16;19.10;35.60
7341;DHT22;6870;50.944;6.932;2024-03-25T07:49:42;19.10;35.30
7341;DHT22;6870;50.944;6.932;2024-03-25T07:52:10;19.10;35.40
7341;DHT22;6870;50.944;6.932;2024-03-25T07:54:36;19.10;35.60
7341;DHT22;6870;50.944;6.932;2024-03-25T07:57:03;19.40;35.30
7341;DHT22;6870;50.944;6.932;2024-03-25T07:59:30;19.10;35.40
7341;DHT22;6870;50.944;6.932;2024-03-25T08:01:56;19.20;34.80
7341;DHT22;6870;50.944;6.932;2024-03-25T08:04:22;19.20;35.60
7341;DHT22;6870;50.944;6.932;2024-03-25T08:06:49;19.60;35.90
7341;DHT22;6870;50.944;6.932;2024-03-25T08:09:16;19.40;35.80
7341;DHT22;6870;50.944;6.932;2024-03-25T08:11:43;19.10;35.40
7341;DHT22;6870;50.944;6.932;2024-03-25T08:14:09;19.40;35.70
7341;DHT22;6870;50.944;6.932;2024-03-25T08:16:35;19.60;35.80
7341;DHT22;6870;50.944;6.932;2024-03-25T08:19:02;19.40;35.50
7341;DHT22;6870;50.944;6.932;2024-03-25T08:21:28;19.70;35.60
7341;DHT22;6870;50.944;6.932;2024-03-25T08:23:54;19.70;35.60
7341;DHT22;6870;50.944;6.932;2024-03-25T08:26:22;19.70;35.50
7341;DHT22;6870;50.944;6.932;2024-03-25T08:28:48;19.90;35.70
7341;DHT22;6870;50.944;6.932;2024-03-25T08:31:15;19.60;35.10
7341;DHT22;6870;50.944;6.932;2024-03-25T08:33:41;19.60;35.10
7341;DHT22;6870;50.944;6.932;2024-03-25T08:36:07;19.70;35.20
7341;DHT22;6870;50.944;6.932;2024-03-25T08:38:34;19.70;35.20
7341;DHT22;6870;50.944;6.932;2024-03-25T08:41:00;19.60;34.30
7341;DHT22;6870;50.944;6.932;2024-03-25T08:43:28;19.90;35.10
7341;DHT22;6870;50.944;6.932;2024-03-25T08:45:54;19.80;35.10
7341;DHT22;6870;50.944;6.932;2024-03-25T08:48:21;19.50;34.80
7341;DHT22;6870;50.944;6.932;2024-03-25T08:50:47;19.90;35.10
7341;DHT22;6870;50.944;6.932;2024-03-25T08:53:13;20.00;34.90
7341;DHT22;6870;50.944;6.932;2024-03-25T08:55:44;19.70;34.70
7341;DHT22;6870;50.944;6.932;2024-03-25T08:58:12;20.00;34.90
7341;DHT22;6870;50.944;6.932;2024-03-25T09:00:40;19.60;34.60
7341;DHT22;6870;50.944;6.932;2024-03-25T09:03:07;19.70;33.90
7341;DHT22;6870;50.944;6.932;2024-03-25T09:05:34;19.80;35.10
7341;DHT22;6870;50.944;6.932;2024-03-25T09:08:00;19.80;35.00
7341;DHT22;6870;50.944;6.932;2024-03-25T09:10:26;19.90;34.70
7341;DHT22;6870;50.944;6.932;2024-03-25T09:13:11;20.10;34.80
7341;DHT22;6870;50.944;6.932;2024-03-25T09:15:37;20.00;34.60
7341;DHT22;6870;50.944;6.932;2024-03-25T09:18:05;20.00;34.40
7341;DHT22;6870;50.944;6.932;2024-03-25T09:20:31;20.30;34.40
7341;DHT22;6870;50.944;6.932;2024-03-25T09:22:57;20.20;33.90
7341;DHT22;6870;50.944;6.932;2024-03-25T09:25:24;20.10;32.70
7341;DHT22;6870;50.944;6.932;2024-03-25T09:27:51;20.10;32.60
7341;DHT22;6870;50.944;6.932;2024-03-25T09:30:17;20.20;32.40
7341;DHT22;6870;50.944;6.932;2024-03-25T09:32:44;20.60;32.20
7341;DHT22;6870;50.944;6.932;2024-03-25T09:35:12;20.60;31.60
7341;DHT22;6870;50.944;6.932;2024-03-25T09:37:38;20.20;30.90
7341;DHT22;6870;50.944;6.932;2024-03-25T09:40:06;20.40;30.80
7341;DHT22;6870;50.944;6.932;2024-03-25T09:42:36;20.10;30.10
7341;DHT22;6870;50.944;6.932;2024-03-25T09:45:08;20.30;30.20
7341;DHT22;6870;50.944;6.932;2024-03-25T09:47:35;20.50;30.10
7341;DHT22;6870;50.944;6.932;2024-03-25T09:50:05;20.20;29.70
7341;DHT22;6870;50.944;6.932;2024-03-25T09:52:33;20.60;29.90
7341;DHT22;6870;50.944;6.932;2024-03-25T09:55:00;20.30;29.50
7341;DHT22;6870;50.944;6.932;2024-03-25T09:57:26;20.60;29.70
7341;DHT22;6870;50.944;6.932;2024-03-25T09:59:53;20.40;29.50
7341;DHT22;6870;50.944;6.932;2024-03-25T10:02:20;20.60;29.60
7341;DHT22;6870;50.944;6.932;2024-03-25T10:04:48;20.40;29.50
7341;DHT22;6870;50.944;6.932;2024-03-25T10:07:21;20.80;29.30
7341;DHT22;6870;50.944;6.932;2024-03-25T10:09:50;20.40;29.10
7341;DHT22;6870;50.944;6.932;2024-03-25T10:12:16;20.70;29.00
7341;DHT22;6870;50.944;6.932;2024-03-25T10:14:42;20.80;29.00
7341;DHT22;6870;50.944;6.932;2024-03-25T10:17:09;20.90;29.00
7341;DHT22;6870;50.944;6.932;2024-03-25T10:19:36;20.90;28.80
7341;DHT22;6870;50.944;6.932;2024-03-25T10:22:04;20.70;28.50
7341;DHT22;6870;50.944;6.932;2024-03-25T10:24:38;20.80;28.30
7341;DHT22;6870;50.944;6.932;2024-03-25T10:27:10;20.70;28.20
7341;DHT22;6870;50.944;6.932;2024-03-25T10:29:37;20.70;28.30
7341;DHT22;6870;50.944;6.932;2024-03-25T10:32:04;20.80;28.40
7341;DHT22;6870;50.944;6.932;2024-03-25T10:34:31;20.80;28.00
7341;DHT22;6870;50.944;6.932;2024-03-25T10:36:57;20.70;27.80
7341;DHT22;6870;50.944;6.932;2024-03-25T10:39:27;20.90;28.10
7341;DHT22;6870;50.944;6.932;2024-03-25T10:41:57;20.80;28.10
7341;DHT22;6870;50.944;6.932;2024-03-25T10:44:26;20.60;28.10
7341;DHT22;6870;50.944;6.932;2024-03-25T10:46:56;20.60;28.20
7341;DHT22;6870;50.944;6.932;2024-03-25T10:49:32;20.70;28.10
7341;DHT22;6870;50.944;6.932;2024-03-25T10:52:01;21.10;28.20
7341;DHT22;6870;50.944;6.932;2024-03-25T10:54:30;21.20;28.20
7341;DHT22;6870;50.944;6.932;2024-03-25T10:56:58;21.10;28.10
7341;DHT22;6870;50.944;6.932;2024-03-25T10:59:26;20.70;27.80
7341;DHT22;6870;50.944;6.932;2024-03-25T11:01:53;20.80;27.70
7341;DHT22;6870;50.944;6.932;2024-03-25T11:04:20;20.90;27.80
7341;DHT22;6870;50.944;6.932;2024-03-25T11:06:47;21.10;27.80
7341;DHT22;6870;50.944;6.932;2024-03-25T11:09:22;21.10;27.30
7341;DHT22;6870;50.944;6.932;2024-03-25T11:11:52;21.30;27.80
7341;DHT22;6870;50.944;6.932;2024-03-25T11:14:19;21.30;27.30
7341;DHT22;6870;50.944;6.932;2024-03-25T11:16:52;21.20;27.10
7341;DHT22;6870;50.944;6.932;2024-03-25T11:19:20;21.40;27.40
7341;DHT22;6870;50.944;6.932;2024-03-25T11:21:46;21.10;27.30
7341;DHT22;6870;50.944;6.932;2024-03-25T11:24:13;20.90;26.70
7341;DHT22;6870;50.944;6.932;2024-03-25T11:26:42;21.00;26.70
7341;DHT22;6870;50.944;6.932;2024-03-25T11:29:09;21.10;27.00
7341;DHT22;6870;50.944;6.932;2024-03-25T11:31:38;21.30;26.90
7341;DHT22;6870;50.944;6.932;2024-03-25T11:34:06;21.10;26.70
7341;DHT22;6870;50.944;6.932;2024-03-25T11:36:33;21.00;26.40
7341;DHT22;6870;50.944;6.932;2024-03-25T11:39:01;21.10;25.60
7341;DHT22;6870;50.944;6.932;2024-03-25T11:41:29;20.70;25.50
7341;DHT22;6870;50.944;6.932;2024-03-25T11:43:55;20.80;25.60
7341;DHT22;6870;50.944;6.932;2024-03-25T11:46:24;21.20;24.80
7341;DHT22;6870;50.944;6.932;2024-03-25T11:48:51;21.10;24.80
7341;DHT22;6870;50.944;6.932;2024-03-25T11:51:19;21.10;24.20
7341;DHT22;6870;50.944;6.932;2024-03-25T11:53:45;21.20;24.40
7341;DHT22;6870;50.944;6.932;2024-03-25T11:56:12;21.30;24.50
7341;DHT22;6870;50.944;6.932;2024-03-25T11:58:39;21.40;24.40
7341;DHT22;6870;50.944;6.932;2024-03-25T12:01:06;21.30;23.70
7341;DHT22;6870;50.944;6.932;2024-03-25T12:03:33;21.30;24.20
7341;DHT22;6870;50.944;6.932;2024-03-25T12:06:00;21.00;23.30
7341;DHT22;6870;50.944;6.932;2024-03-25T12:08:28;20.80;23.00
7341;DHT22;6870;50.944;6.932;2024-03-25T12:10:54;21.10;22.70
7341;DHT22;6870;50.944;6.932;2024-03-25T12:13:39;20.90;22.60
7341;DHT22;6870;50.944;6.932;2024-03-25T12:16:06;21.00;22.40
7341;DHT22;6870;50.944;6.932;2024-03-25T12:18:32;21.30;22.20
7341;DHT22;6870;50.944;6.932;2024-03-25T12:20:59;21.30;20.70
7341;DHT22;6870;50.944;6.932;2024-03-25T12:23:29;21.30;21.00
7341;DHT22;6870;50.944;6.932;2024-03-25T12:25:56;21.00;20.40
7341;DHT22;6870;50.944;6.932;2024-03-25T12:28:38;21.00;19.80
7341;DHT22;6870;50.944;6.932;2024-03-25T12:31:14;21.30;19.70
7341;DHT22;6870;50.944;6.932;2024-03-25T12:33:40;20.90;19.10
7341;DHT22;6870;50.944;6.932;2024-03-25T12:36:07;21.00;18.90
7341;DHT22;6870;50.944;6.932;2024-03-25T12:38:35;21.00;19.20
7341;DHT22;6870;50.944;6.932;2024-03-25T12:41:05;21.10;18.70
7341;DHT22;6870;50.944;6.932;2024-03-25T12:43:34;21.00;18.00
7341;DHT22;6870;50.944;6.932;2024-03-25T12:46:01;21.00;18.50
7341;DHT22;6870;50.944;6.932;2024-03-25T12:48:28;20.80;18.00
7341;DHT22;6870;50.944;6.932;2024-03-25T12:50:54;21.30;18.40
7341;DHT22;6870;50.944;6.932;2024-03-25T12:53:20;21.00;17.90
7341;DHT22;6870;50.944;6.932;2024-03-25T12:55:48;20.80;17.80
7341;DHT22;6870;50.944;6.932;2024-03-25T12:58:15;20.90;18.10
7341;DHT22;6870;50.944;6.932;2024-03-25T13:00:41;21.30;18.10
7341;DHT22;6870;50.944;6.932;2024-03-25T13:03:08;21.00;18.20
7341;DHT22;6870;50.944;6.932;2024-03-25T13:05:35;21.00;18.30
7341;DHT22;6870;50.944;6.932;2024-03-25T13:08:02;21.40;18.80
7341;DHT22;6870;50.944;6.932;2024-03-25T13:10:29;21.30;19.80
7341;DHT22;6870;50.944;6.932;2024-03-25T13:12:57;20.90;19.20
7341;DHT22;6870;50.944;6.932;2024-03-25T13:15:24;21.10;19.70
7341;DHT22;6870;50.944;6.932;2024-03-25T13:17:50;21.20;19.50
7341;DHT22;6870;50.944;6.932;2024-03-25T13:20:16;21.10;19.30
7341;DHT22;6870;50.944;6.932;2024-03-25T13:22:42;21.20;19.40
7341;DHT22;6870;50.944;6.932;2024-03-25T13:25:08;21.40;19.70
7341;DHT22;6870;50.944;6.932;2024-03-25T13:27:35;20.90;19.60
7341;DHT22;6870;50.944;6.932;2024-03-25T13:30:03;21.00;19.70
7341;DHT22;6870;50.944;6.932;2024-03-25T13:32:31;21.30;19.60
7341;DHT22;6870;50.944;6.932;2024-03-25T13:34:57;21.40;20.20
7341;DHT22;6870;50.944;6.932;2024-03-25T13:37:24;21.30;20.20
7341;DHT22;6870;50.944;6.932;2024-03-25T13:39:50;21.30;20.10
7341;DHT22;6870;50.944;6.932;2024-03-25T13:42:17;21.60;20.10
7341;DHT22;6870;50.944;6.932;2024-03-25T13:44:43;21.50;20.50
7341;DHT22;6870;50.944;6.932;2024-03-25T13:47:10;21.70;21.00
7341;DHT22;6870;50.944;6.932;2024-03-25T13:49:37;21.40;21.30
7341;DHT22;6870;50.944;6.932;2024-03-25T13:52:04;21.10;20.60
7341;DHT22;6870;50.944;6.932;2024-03-25T13:54:31;21.50;20.80
7341;DHT22;6870;50.944;6.932;2024-03-25T13:56:57;21.20;20.20
7341;DHT22;6870;50.944;6.932;2024-03-25T13:59:23;21.20;20.10
7341;DHT22;6870;50.944;6.932;2024-03-25T14:01:50;21.50;20.30
7341;DHT22;6870;50.944;6.932;2024-03-25T14:04:18;21.50;20.00
7341;DHT22;6870;50.944;6.932;2024-03-25T14:06:44;21.40;20.70
7341;DHT22;6870;50.944;6.932;2024-03-25T14:09:13;21.50;20.80
7341;DHT22;6870;50.944;6.932;2024-03-25T14:11:49;21.50;21.20
7341;DHT22;6870;50.944;6.932;2024-03-25T14:14:15;21.40;21.20
7341;DHT22;6870;50.944;6.932;2024-03-25T14:16:41;21.20;20.90
7341;DHT22;6870;50.944;6.932;2024-03-25T14:19:07;21.30;20.80
7341;DHT22;6870;50.944;6.932;2024-03-25T14:21:35;21.30;21.00
7341;DHT22;6870;50.944;6.932;2024-03-25T14:24:01;21.60;20.70
7341;DHT22;6870;50.944;6.932;2024-03-25T14:26:30;21.40;20.30
7341;DHT22;6870;50.944;6.932;2024-03-25T14:28:56;21.40;19.30
7341;DHT22;6870;50.944;6.932;2024-03-25T14:31:22;21.60;19.90
7341;DHT22;6870;50.944;6.932;2024-03-25T14:33:48;21.40;19.80
7341;DHT22;6870;50.944;6.932;2024-03-25T14:36:15;21.50;19.40
7341;DHT22;6870;50.944;6.932;2024-03-25T14:38:42;21.40;19.50
7341;DHT22;6870;50.944;6.932;2024-03-25T14:41:11;21.60;19.80
7341;DHT22;6870;50.944;6.932;2024-03-25T14:43:38;21.50;19.60
7341;DHT22;6870;50.944;6.932;2024-03-25T14:46:05;21.80;20.60
7341;DHT22;6870;50.944;6.932;2024-03-25T14:48:31;21.50;19.20
7341;DHT22;6870;50.944;6.932;2024-03-25T14:50:58;21.70;19.30
7341;DHT22;6870;50.944;6.932;2024-03-25T14:53:24;21.40;19.70
7341;DHT22;6870;50.944;6.932;2024-03-25T14:55:51;21.50;19.50
7341;DHT22;6870;50.944;6.932;2024-03-25T14:58:18;21.40;19.20
7341;DHT22;6870;50.944;6.932;2024-03-25T15:00:44;21.90;19.80
7341;DHT22;6870;50.944;6.932;2024-03-25T15:03:10;21.50;19.80
7341;DHT22;6870;50.944;6.932;2024-03-25T15:05:36;21.30;19.40
7341;DHT22;6870;50.944;6.932;2024-03-25T15:08:03;21.50;19.00
7341;DHT22;6870;50.944;6.932;2024-03-25T15:10:33;21.40;19.30
7341;DHT22;6870;50.944;6.932;2024-03-25T15:13:01;21.50;19.30
7341;DHT22;6870;50.944;6.932;2024-03-25T15:15:30;21.30;18.50
7341;DHT22;6870;50.944;6.932;2024-03-25T15:17:57;21.40;18.70
7341;DHT22;6870;50.944;6.932;2024-03-25T15:20:23;21.30;18.70
7341;DHT22;6870;50.944;6.932;2024-03-25T15:22:49;21.40;17.60
7341;DHT22;6870;50.944;6.932;2024-03-25T15:25:15;21.40;18.60
7341;DHT22;6870;50.944;6.932;2024-03-25T15:27:41;21.30;17.40
7341;DHT22;6870;50.944;6.932;2024-03-25T15:30:10;21.30;18.30
7341;DHT22;6870;50.944;6.932;2024-03-25T15:32:36;21.50;18.20
7341;DHT22;6870;50.944;6.932;2024-03-25T15:35:03;21.20;18.30
7341;DHT22;6870;50.944;6.932;2024-03-25T15:37:30;21.30;18.40
7341;DHT22;6870;50.944;6.932;2024-03-25T15:39:56;21.50;17.80
7341;DHT22;6870;50.944;6.932;2024-03-25T15:42:22;21.30;17.10
7341;DHT22;6870;50.944;6.932;2024-03-25T15:44:50;21.20;17.70
7341;DHT22;6870;50.944;6.932;2024-03-25T15:47:17;21.40;18.40
7341;DHT22;6870;50.944;6.932;2024-03-25T15:49:44;21.30;18.00
7341;DHT22;6870;50.944;6.932;2024-03-25T15:52:12;21.10;17.80
7341;DHT22;6870;50.944;6.932;2024-03-25T15:54:38;21.10;16.90
7341;DHT22;6870;50.944;6.932;2024-03-25T15:57:04;20.90;17.70
7341;DHT22;6870;50.944;6.932;2024-03-25T15:59:31;20.90;18.40
7341;DHT22;6870;50.944;6.932;2024-03-25T16:01:57;21.00;17.80